sensor_id;sensor_type;location;lat;lon;timestamp;pressure;altitude;pressure_sealevel;temperature
75773;BMP280;64381;0.000;0.000;2024-03-08T00:00:41;95232.59;;;19.40
75773;BMP280;64381;0.000;0.000;2024-03-08T00:03:07;95229.63;;;19.38
75773;BMP280;64381;0.000;0.000;2024-03-08T00:05:32;95228.34;;;19.39
75773;BMP280;64381;0.000;0.000;2024-03-08T00:07:57;95224.69;;;19.36
75773;BMP280;64381;0.000;0.000;2024-03-08T00:10:22;95230.22;;;19.36
75773;BMP280;64381;0.000;0.000;2024-03-08T00:12:47;95231.50;;;19.35
75773;BMP280;64381;0.000;0.000;2024-03-08T00:15:14;95225.25;;;19.35
75773;BMP280;64381;0.000;0.000;2024-03-08T00:17:40;95226.53;;;19.34
75773;BMP280;64381;0.000;0.000;2024-03-08T00:20:06;95223.03;;;19.33
75773;BMP280;64381;0.000;0.000;2024-03-08T00:22:32;95214.56;;;19.31
75773;BMP280;64381;0.000;0.000;2024-03-08T00:24:57;95217.13;;;19.29
75773;BMP280;64381;0.000;0.000;2024-03-08T00:27:22;95220.66;;;19.30
75773;BMP280;64381;0.000;0.000;2024-03-08T00:29:47;95220.66;;;19.30
75773;BMP280;64381;0.000;0.000;2024-03-08T00:32:13;95216.59;;;19.31
75773;BMP280;64381;0.000;0.000;2024-03-08T00:34:38;95217.88;;;19.30
75773;BMP280;64381;0.000;0.000;2024-03-08T00:37:03;95216.41;;;19.29
75773;BMP280;64381;0.000;0.000;2024-03-08T00:39:29;95205.94;;;19.27
75773;BMP280;64381;0.000;0.000;2024-03-08T00:41:54;95203.19;;;19.27
75773;BMP280;64381;0.000;0.000;2024-03-08T00:44:19;95197.66;;;19.27
75773;BMP280;64381;0.000;0.000;2024-03-08T00:46:44;95190.63;;;19.26
75773;BMP280;64381;0.000;0.000;2024-03-08T00:49:10;95188.63;;;19.27
75773;BMP280;64381;0.000;0.000;2024-03-08T00:51:35;95196.91;;;19.27
75773;BMP280;64381;0.000;0.000;2024-03-08T00:54:00;95178.09;;;19.25
75773;BMP280;64381;0.000;0.000;2024-03-08T00:56:25;95176.06;;;19.26
75773;BMP280;64381;0.000;0.000;2024-03-08T00:58:50;95176.81;;;19.26
75773;BMP280;64381;0.000;0.000;2024-03-08T01:01:16;95176.06;;;19.26
75773;BMP280;64381;0.000;0.000;2024-03-08T01:03:43;95182.91;;;19.25
75773;BMP280;64381;0.000;0.000;2024-03-08T01:06:08;95173.84;;;19.24
75773;BMP280;64381;0.000;0.000;2024-03-08T01:08:34;95165.56;;;19.24
75773;BMP280;64381;0.000;0.000;2024-03-08T01:10:59;95165.56;;;19.24
75773;BMP280;64381;0.000;0.000;2024-03-08T01:13:24;95174.03;;;19.26
75773;BMP280;64381;0.000;0.000;2024-03-08T01:15:49;95170.75;;;19.28
75773;BMP280;64381;0.000;0.000;2024-03-08T01:18:14;95165.91;;;19.28
75773;BMP280;64381;0.000;0.000;2024-03-08T01:20:40;95163.31;;;19.30
75773;BMP280;64381;0.000;0.000;2024-03-08T01:23:05;95160.56;;;19.30
75773;BMP280;64381;0.000;0.000;2024-03-08T01:25:30;95165.69;;;19.34
75773;BMP280;64381;0.000;0.000;2024-03-08T01:27:55;95148.94;;;19.32
75773;BMP280;64381;0.000;0.000;2024-03-08T01:30:20;95152.63;;;19.34
75773;BMP280;64381;0.000;0.000;2024-03-08T01:32:46;95142.28;;;19.35
75773;BMP280;64381;0.000;0.000;2024-03-08T01:35:11;95136.19;;;19.36
75773;BMP280;64381;0.000;0.000;2024-03-08T01:37:36;95132.09;;;19.37
75773;BMP280;64381;0.000;0.000;2024-03-08T01:40:02;95131.56;;;19.39
75773;BMP280;64381;0.000;0.000;2024-03-08T01:42:27;95126.56;;;19.37
75773;BMP280;64381;0.000;0.000;2024-03-08T01:44:52;95132.84;;;19.38
75773;BMP280;64381;0.000;0.000;2024-03-08T01:47:17;95128.25;;;19.40
75773;BMP280;64381;0.000;0.000;2024-03-08T01:49:43;95127.50;;;19.40
75773;BMP280;64381;0.000;0.000;2024-03-08T01:52:09;95116.44;;;19.40
75773;BMP280;64381;0.000;0.000;2024-03-08T01:54:35;95116.44;;;19.40
75773;BMP280;64381;0.000;0.000;2024-03-08T01:57:01;95113.47;;;19.38
75773;BMP280;64381;0.000;0.000;2024-03-08T01:59:26;95112.03;;;19.37
75773;BMP280;64381;0.000;0.000;2024-03-08T02:01:55;95107.78;;;19.36
75773;BMP280;64381;0.000;0.000;2024-03-08T02:04:20;95102.84;;;19.34
75773;BMP280;64381;0.000;0.000;2024-03-08T02:06:45;95101.34;;;19.33
75773;BMP280;64381;0.000;0.000;2024-03-08T02:09:11;95104.69;;;19.32
75773;BMP280;64381;0.000;0.000;2024-03-08T02:11:36;95095.66;;;19.31
75773;BMP280;64381;0.000;0.000;2024-03-08T02:14:01;95093.31;;;19.28
75773;BMP280;64381;0.000;0.000;2024-03-08T02:16:27;95097.38;;;19.27
75773;BMP280;64381;0.000;0.000;2024-03-08T02:18:52;95093.13;;;19.26
75773;BMP280;64381;0.000;0.000;2024-03-08T02:21:17;95097.75;;;19.23
75773;BMP280;64381;0.000;0.000;2024-03-08T02:23:43;95091.50;;;19.23
75773;BMP280;64381;0.000;0.000;2024-03-08T02:26:08;95096.13;;;19.20
75773;BMP280;64381;0.000;0.000;2024-03-08T02:28:33;95083.59;;;19.19
75773;BMP280;64381;0.000;0.000;2024-03-08T02:30:58;95088.41;;;19.19
75773;BMP280;64381;0.000;0.000;2024-03-08T02:33:24;95084.16;;;19.18
75773;BMP280;64381;0.000;0.000;2024-03-08T02:35:50;95080.66;;;19.17
75773;BMP280;64381;0.000;0.000;2024-03-08T02:38:17;95081.06;;;19.14
75773;BMP280;64381;0.000;0.000;2024-03-08T02:40:43;95073.50;;;19.14
75773;BMP280;64381;0.000;0.000;2024-03-08T02:43:09;95077.56;;;19.13
75773;BMP280;64381;0.000;0.000;2024-03-08T02:45:34;95085.66;;;19.11
75773;BMP280;64381;0.000;0.000;2024-03-08T02:47:59;95084.94;;;19.11
75773;BMP280;64381;0.000;0.000;2024-03-08T02:50:24;95075.34;;;19.12
75773;BMP280;64381;0.000;0.000;2024-03-08T02:52:50;95081.44;;;19.10
75773;BMP280;64381;0.000;0.000;2024-03-08T02:55:15;95073.75;;;19.09
75773;BMP280;64381;0.000;0.000;2024-03-08T02:57:40;95075.03;;;19.08
75773;BMP280;64381;0.000;0.000;2024-03-08T03:00:06;95070.22;;;19.08
75773;BMP280;64381;0.000;0.000;2024-03-08T03:02:31;95070.22;;;19.08
75773;BMP280;64381;0.000;0.000;2024-03-08T03:04:58;95073.75;;;19.09
75773;BMP280;64381;0.000;0.000;2024-03-08T03:07:23;95068.94;;;19.09
75773;BMP280;64381;0.000;0.000;2024-03-08T03:09:48;95064.13;;;19.10
75773;BMP280;64381;0.000;0.000;2024-03-08T03:12:14;95065.44;;;19.09
75773;BMP280;64381;0.000;0.000;2024-03-08T03:14:39;95062.06;;;19.10
75773;BMP280;64381;0.000;0.000;2024-03-08T03:17:04;95060.78;;;19.11
75773;BMP280;64381;0.000;0.000;2024-03-08T03:19:30;95065.78;;;19.13
75773;BMP280;64381;0.000;0.000;2024-03-08T03:21:55;95056.75;;;19.12
75773;BMP280;64381;0.000;0.000;2024-03-08T03:24:21;95051.41;;;19.14
75773;BMP280;64381;0.000;0.000;2024-03-08T03:26:46;95051.41;;;19.14
75773;BMP280;64381;0.000;0.000;2024-03-08T03:29:11;95059.13;;;19.16
75773;BMP280;64381;0.000;0.000;2024-03-08T03:31:36;95057.06;;;19.16
75773;BMP280;64381;0.000;0.000;2024-03-08T03:34:02;95050.81;;;19.16
75773;BMP280;64381;0.000;0.000;2024-03-08T03:36:28;95055.63;;;19.15
75773;BMP280;64381;0.000;0.000;2024-03-08T03:38:53;95055.63;;;19.15
75773;BMP280;64381;0.000;0.000;2024-03-08T03:41:18;95052.84;;;19.15
75773;BMP280;64381;0.000;0.000;2024-03-08T03:43:44;95050.81;;;19.16
75773;BMP280;64381;0.000;0.000;2024-03-08T03:46:09;95041.78;;;19.15
75773;BMP280;64381;0.000;0.000;2024-03-08T03:48:34;95039.97;;;19.10
75773;BMP280;64381;0.000;0.000;2024-03-08T03:50:59;95047.16;;;19.13
75773;BMP280;64381;0.000;0.000;2024-03-08T03:53:24;95050.47;;;19.12
75773;BMP280;64381;0.000;0.000;2024-03-08T03:55:50;95037.94;;;19.11
75773;BMP280;64381;0.000;0.000;2024-03-08T03:58:15;95033.97;;;19.04
75773;BMP280;64381;0.000;0.000;2024-03-08T04:00:40;95035.78;;;19.09
75773;BMP280;64381;0.000;0.000;2024-03-08T04:03:05;95037.19;;;19.10
75773;BMP280;64381;0.000;0.000;2024-03-08T04:05:30;95030.81;;;19.08
75773;BMP280;64381;0.000;0.000;2024-03-08T04:07:56;95031.19;;;19.04
75773;BMP280;64381;0.000;0.000;2024-03-08T04:10:21;95031.34;;;19.06
75773;BMP280;64381;0.000;0.000;2024-03-08T04:12:46;95037.63;;;19.06
75773;BMP280;64381;0.000;0.000;2024-03-08T04:15:11;95039.66;;;19.06
75773;BMP280;64381;0.000;0.000;2024-03-08T04:17:37;95032.50;;;19.03
75773;BMP280;64381;0.000;0.000;2024-03-08T04:20:03;95031.19;;;19.04
75773;BMP280;64381;0.000;0.000;2024-03-08T04:22:28;95026.81;;;19.01
75773;BMP280;64381;0.000;0.000;2024-03-08T04:24:53;95029.59;;;19.01
75773;BMP280;64381;0.000;0.000;2024-03-08T04:27:18;95023.31;;;19.00
75773;BMP280;64381;0.000;0.000;2024-03-08T04:29:44;95019.81;;;19.00
75773;BMP280;64381;0.000;0.000;2024-03-08T04:32:09;95031.59;;;19.00
75773;BMP280;64381;0.000;0.000;2024-03-08T04:34:35;95024.59;;;18.99
75773;BMP280;64381;0.000;0.000;2024-03-08T04:37:01;95025.34;;;19.00
75773;BMP280;64381;0.000;0.000;2024-03-08T04:39:26;95018.34;;;18.99
75773;BMP280;64381;0.000;0.000;2024-03-08T04:41:51;95026.63;;;18.99
75773;BMP280;64381;0.000;0.000;2024-03-08T04:44:17;95016.31;;;18.99
75773;BMP280;64381;0.000;0.000;2024-03-08T04:46:42;95020.22;;;18.96
75773;BMP280;64381;0.000;0.000;2024-03-08T04:49:07;95027.19;;;18.97
75773;BMP280;64381;0.000;0.000;2024-03-08T04:51:33;95020.91;;;18.97
75773;BMP280;64381;0.000;0.000;2024-03-08T04:53:58;95018.16;;;18.97
75773;BMP280;64381;0.000;0.000;2024-03-08T04:56:23;95023.31;;;19.00
75773;BMP280;64381;0.000;0.000;2024-03-08T04:58:48;95025.16;;;18.98
75773;BMP280;64381;0.000;0.000;2024-03-08T05:01:14;95024.75;;;19.01
75773;BMP280;64381;0.000;0.000;2024-03-08T05:03:39;95021.28;;;19.01
75773;BMP280;64381;0.000;0.000;2024-03-08T05:06:04;95027.53;;;19.01
75773;BMP280;64381;0.000;0.000;2024-03-08T05:08:29;95026.41;;;19.04
75773;BMP280;64381;0.000;0.000;2024-03-08T05:10:55;95020.13;;;19.04
75773;BMP280;64381;0.000;0.000;2024-03-08T05:13:20;95027.13;;;19.05
75773;BMP280;64381;0.000;0.000;2024-03-08T05:15:49;95023.78;;;19.06
75773;BMP280;64381;0.000;0.000;2024-03-08T05:18:14;95025.13;;;19.05
75773;BMP280;64381;0.000;0.000;2024-03-08T05:20:39;95022.50;;;19.08
75773;BMP280;64381;0.000;0.000;2024-03-08T05:23:05;95012.19;;;19.08
75773;BMP280;64381;0.000;0.000;2024-03-08T05:25:30;95017.16;;;19.10
75773;BMP280;64381;0.000;0.000;2024-03-08T05:27:55;95010.91;;;19.09
75773;BMP280;64381;0.000;0.000;2024-03-08T05:30:20;95006.66;;;19.08
75773;BMP280;64381;0.000;0.000;2024-03-08T05:32:45;95004.03;;;19.10
75773;BMP280;64381;0.000;0.000;2024-03-08T05:35:11;95006.78;;;19.10
75773;BMP280;64381;0.000;0.000;2024-03-08T05:37:36;95004.63;;;19.09
75773;BMP280;64381;0.000;0.000;2024-03-08T05:40:01;95004.63;;;19.09
75773;BMP280;64381;0.000;0.000;2024-03-08T05:42:27;95003.16;;;19.08
75773;BMP280;64381;0.000;0.000;2024-03-08T05:44:52;95001.69;;;19.06
75773;BMP280;64381;0.000;0.000;2024-03-08T05:47:17;95002.44;;;19.07
75773;BMP280;64381;0.000;0.000;2024-03-08T05:49:42;95003.56;;;19.04
75773;BMP280;64381;0.000;0.000;2024-03-08T05:52:08;95004.28;;;19.04
75773;BMP280;64381;0.000;0.000;2024-03-08T05:54:33;95002.81;;;19.03
75773;BMP280;64381;0.000;0.000;2024-03-08T05:56:58;95001.38;;;19.02
75773;BMP280;64381;0.000;0.000;2024-03-08T05:59:23;95002.09;;;19.03
75773;BMP280;64381;0.000;0.000;2024-03-08T06:01:48;94997.13;;;19.01
75773;BMP280;64381;0.000;0.000;2024-03-08T06:04:14;95005.25;;;18.99
75773;BMP280;64381;0.000;0.000;2024-03-08T06:06:39;95001.75;;;18.99
75773;BMP280;64381;0.000;0.000;2024-03-08T06:09:04;94994.00;;;18.97
75773;BMP280;64381;0.000;0.000;2024-03-08T06:11:29;95008.03;;;18.99
75773;BMP280;64381;0.000;0.000;2024-03-08T06:13:55;94993.28;;;18.97
75773;BMP280;64381;0.000;0.000;2024-03-08T06:16:20;95005.06;;;18.97
75773;BMP280;64381;0.000;0.000;2024-03-08T06:18:45;94994.00;;;18.97
75773;BMP280;64381;0.000;0.000;2024-03-08T06:21:10;94999.53;;;18.97
75773;BMP280;64381;0.000;0.000;2024-03-08T06:23:35;94993.88;;;18.95
75773;BMP280;64381;0.000;0.000;2024-03-08T06:26:01;94993.88;;;18.95
75773;BMP280;64381;0.000;0.000;2024-03-08T06:28:26;94998.13;;;18.96
75773;BMP280;64381;0.000;0.000;2024-03-08T06:30:51;95001.44;;;18.95
75773;BMP280;64381;0.000;0.000;2024-03-08T06:33:17;95004.94;;;18.95
75773;BMP280;64381;0.000;0.000;2024-03-08T06:35:42;95006.97;;;18.95
75773;BMP280;64381;0.000;0.000;2024-03-08T06:38:07;95009.72;;;18.95
75773;BMP280;64381;0.000;0.000;2024-03-08T06:40:33;95004.19;;;18.95
75773;BMP280;64381;0.000;0.000;2024-03-08T06:42:58;95013.78;;;18.94
75773;BMP280;64381;0.000;0.000;2024-03-08T06:45:23;95004.34;;;18.97
75773;BMP280;64381;0.000;0.000;2024-03-08T06:47:48;95005.06;;;18.97
75773;BMP280;64381;0.000;0.000;2024-03-08T06:50:14;95001.03;;;18.98
75773;BMP280;64381;0.000;0.000;2024-03-08T06:52:39;94999.72;;;18.99
75773;BMP280;64381;0.000;0.000;2024-03-08T06:55:04;95012.25;;;19.00
75773;BMP280;64381;0.000;0.000;2024-03-08T06:57:30;95014.44;;;19.02
75773;BMP280;64381;0.000;0.000;2024-03-08T06:59:55;95009.66;;;19.02
75773;BMP280;64381;0.000;0.000;2024-03-08T07:02:20;95002.25;;;19.05
75773;BMP280;64381;0.000;0.000;2024-03-08T07:04:45;95003.00;;;19.05
75773;BMP280;64381;0.000;0.000;2024-03-08T07:07:11;94998.91;;;19.06
75773;BMP280;64381;0.000;0.000;2024-03-08T07:09:36;94999.66;;;19.07
75773;BMP280;64381;0.000;0.000;2024-03-08T07:12:02;95002.44;;;19.07
75773;BMP280;64381;0.000;0.000;2024-03-08T07:14:27;94995.59;;;19.08
75773;BMP280;64381;0.000;0.000;2024-03-08T07:16:52;95004.63;;;19.09
75773;BMP280;64381;0.000;0.000;2024-03-08T07:19:18;95000.41;;;19.08
75773;BMP280;64381;0.000;0.000;2024-03-08T07:21:43;95003.91;;;19.08
75773;BMP280;64381;0.000;0.000;2024-03-08T07:24:09;94994.31;;;19.09
75773;BMP280;64381;0.000;0.000;2024-03-08T07:26:34;95004.03;;;19.10
75773;BMP280;64381;0.000;0.000;2024-03-08T07:28:59;94994.31;;;19.09
75773;BMP280;64381;0.000;0.000;2024-03-08T07:31:24;94997.63;;;19.08
75773;BMP280;64381;0.000;0.000;2024-03-08T07:33:50;94991.94;;;19.05
75773;BMP280;64381;0.000;0.000;2024-03-08T07:36:15;94995.25;;;19.04
75773;BMP280;64381;0.000;0.000;2024-03-08T07:38:40;94992.50;;;19.04
75773;BMP280;64381;0.000;0.000;2024-03-08T07:41:06;94989.72;;;19.04
75773;BMP280;64381;0.000;0.000;2024-03-08T07:43:31;94980.69;;;19.03
75773;BMP280;64381;0.000;0.000;2024-03-08T07:45:56;94984.94;;;19.04
75773;BMP280;64381;0.000;0.000;2024-03-08T07:48:22;94982.19;;;19.04
75773;BMP280;64381;0.000;0.000;2024-03-08T07:50:47;94982.19;;;19.04
75773;BMP280;64381;0.000;0.000;2024-03-08T07:53:12;94982.19;;;19.04
75773;BMP280;64381;0.000;0.000;2024-03-08T07:55:37;94979.56;;;19.06
75773;BMP280;64381;0.000;0.000;2024-03-08T07:58:03;94969.25;;;19.07
75773;BMP280;64381;0.000;0.000;2024-03-08T08:00:29;94973.50;;;19.08
75773;BMP280;64381;0.000;0.000;2024-03-08T08:02:54;94977.56;;;19.07
75773;BMP280;64381;0.000;0.000;2024-03-08T08:05:19;94973.50;;;19.08
75773;BMP280;64381;0.000;0.000;2024-03-08T08:07:47;94968.69;;;19.09
75773;BMP280;64381;0.000;0.000;2024-03-08T08:10:13;94970.16;;;19.10
75773;BMP280;64381;0.000;0.000;2024-03-08T08:12:38;94970.00;;;19.08
75773;BMP280;64381;0.000;0.000;2024-03-08T08:15:04;94970.88;;;19.10
75773;BMP280;64381;0.000;0.000;2024-03-08T08:17:29;94966.06;;;19.11
75773;BMP280;64381;0.000;0.000;2024-03-08T08:19:54;94970.88;;;19.10
75773;BMP280;64381;0.000;0.000;2024-03-08T08:22:20;94969.56;;;19.11
75773;BMP280;64381;0.000;0.000;2024-03-08T08:24:45;94966.25;;;19.13
75773;BMP280;64381;0.000;0.000;2024-03-08T08:27:17;94956.69;;;19.14
75773;BMP280;64381;0.000;0.000;2024-03-08T08:29:42;94966.25;;;19.13
75773;BMP280;64381;0.000;0.000;2024-03-08T08:32:07;94963.69;;;19.15
75773;BMP280;64381;0.000;0.000;2024-03-08T08:34:32;94958.88;;;19.15
75773;BMP280;64381;0.000;0.000;2024-03-08T08:36:58;94949.25;;;19.16
75773;BMP280;64381;0.000;0.000;2024-03-08T08:39:23;94947.22;;;19.17
75773;BMP280;64381;0.000;0.000;2024-03-08T08:41:48;94939.50;;;19.15
75773;BMP280;64381;0.000;0.000;2024-03-08T08:44:14;94937.06;;;19.19
75773;BMP280;64381;0.000;0.000;2024-03-08T08:46:39;94934.28;;;19.19
75773;BMP280;64381;0.000;0.000;2024-03-08T08:49:04;94935.03;;;19.20
75773;BMP280;64381;0.000;0.000;2024-03-08T08:51:30;94937.41;;;19.23
75773;BMP280;64381;0.000;0.000;2024-03-08T08:53:55;94922.13;;;19.22
75773;BMP280;64381;0.000;0.000;2024-03-08T08:56:21;94924.47;;;19.26
75773;BMP280;64381;0.000;0.000;2024-03-08T08:58:46;94923.00;;;19.25
75773;BMP280;64381;0.000;0.000;2024-03-08T09:01:11;94921.91;;;19.28
75773;BMP280;64381;0.000;0.000;2024-03-08T09:03:37;94928.84;;;19.29
75773;BMP280;64381;0.000;0.000;2024-03-08T09:06:03;94922.75;;;19.30
75773;BMP280;64381;0.000;0.000;2024-03-08T09:08:29;94924.97;;;19.32
75773;BMP280;64381;0.000;0.000;2024-03-08T09:10:54;94921.47;;;19.31
75773;BMP280;64381;0.000;0.000;2024-03-08T09:13:19;94915.19;;;19.31
75773;BMP280;64381;0.000;0.000;2024-03-08T09:15:45;94915.34;;;19.33
75773;BMP280;64381;0.000;0.000;2024-03-08T09:18:10;94915.34;;;19.33
75773;BMP280;64381;0.000;0.000;2024-03-08T09:20:35;94904.13;;;19.31
75773;BMP280;64381;0.000;0.000;2024-03-08T09:23:00;94905.78;;;19.34
75773;BMP280;64381;0.000;0.000;2024-03-08T09:25:26;94899.66;;;19.35
75773;BMP280;64381;0.000;0.000;2024-03-08T09:27:51;94898.22;;;19.34
75773;BMP280;64381;0.000;0.000;2024-03-08T09:30:16;94901.53;;;19.33
75773;BMP280;64381;0.000;0.000;2024-03-08T09:32:41;94885.34;;;19.29
75773;BMP280;64381;0.000;0.000;2024-03-08T09:35:07;94888.28;;;19.31
75773;BMP280;64381;0.000;0.000;2024-03-08T09:37:33;94879.69;;;19.27
75773;BMP280;64381;0.000;0.000;2024-03-08T09:39:58;94887.97;;;19.27
75773;BMP280;64381;0.000;0.000;2024-03-08T09:42:25;94884.59;;;19.29
75773;BMP280;64381;0.000;0.000;2024-03-08T09:44:50;94883.19;;;19.28
75773;BMP280;64381;0.000;0.000;2024-03-08T09:47:15;94887.25;;;19.27
75773;BMP280;64381;0.000;0.000;2024-03-08T09:49:41;94886.50;;;19.26
75773;BMP280;64381;0.000;0.000;2024-03-08T09:52:07;94883.75;;;19.26
75773;BMP280;64381;0.000;0.000;2024-03-08T09:54:32;94883.00;;;19.26
75773;BMP280;64381;0.000;0.000;2024-03-08T09:56:58;94882.25;;;19.25
75773;BMP280;64381;0.000;0.000;2024-03-08T09:59:23;94879.34;;;19.23
75773;BMP280;64381;0.000;0.000;2024-03-08T10:01:48;94889.09;;;19.24
75773;BMP280;64381;0.000;0.000;2024-03-08T10:04:14;94880.06;;;19.24
75773;BMP280;64381;0.000;0.000;2024-03-08T10:06:40;94875.25;;;19.24
75773;BMP280;64381;0.000;0.000;2024-03-08T10:09:05;94878.03;;;19.24
75773;BMP280;64381;0.000;0.000;2024-03-08T10:11:30;94873.22;;;19.25
75773;BMP280;64381;0.000;0.000;2024-03-08T10:13:56;94873.97;;;19.25
75773;BMP280;64381;0.000;0.000;2024-03-08T10:16:21;94875.25;;;19.24
75773;BMP280;64381;0.000;0.000;2024-03-08T10:18:46;94869.00;;;19.24
75773;BMP280;64381;0.000;0.000;2024-03-08T10:21:11;94862.03;;;19.23
75773;BMP280;64381;0.000;0.000;2024-03-08T10:23:37;94855.16;;;19.24
75773;BMP280;64381;0.000;0.000;2024-03-08T10:26:18;94860.00;;;19.23
75773;BMP280;64381;0.000;0.000;2024-03-08T10:28:47;94848.78;;;19.21
75773;BMP280;64381;0.000;0.000;2024-03-08T10:31:16;94853.56;;;19.21
75773;BMP280;64381;0.000;0.000;2024-03-08T10:33:42;94844.00;;;19.22
75773;BMP280;64381;0.000;0.000;2024-03-08T10:36:08;94844.84;;;19.24
75773;BMP280;64381;0.000;0.000;2024-03-08T10:38:35;94846.50;;;19.27
75773;BMP280;64381;0.000;0.000;2024-03-08T10:41:03;94843.41;;;19.40
75773;BMP280;64381;0.000;0.000;2024-03-08T10:43:33;94841.56;;;19.52
75773;BMP280;64381;0.000;0.000;2024-03-08T10:46:13;94831.78;;;19.51
75773;BMP280;64381;0.000;0.000;2024-03-08T10:48:44;94844.00;;;19.48
75773;BMP280;64381;0.000;0.000;2024-03-08T10:51:11;94830.75;;;19.47
75773;BMP280;64381;0.000;0.000;2024-03-08T10:53:37;94834.81;;;19.46
75773;BMP280;64381;0.000;0.000;2024-03-08T10:56:03;94842.56;;;19.47
75773;BMP280;64381;0.000;0.000;2024-03-08T10:58:29;94829.78;;;19.52
75773;BMP280;64381;0.000;0.000;2024-03-08T11:00:55;94836.41;;;19.66
75773;BMP280;64381;0.000;0.000;2024-03-08T11:06:05;94829.38;;;18.94
75773;BMP280;64381;0.000;0.000;2024-03-08T11:08:31;94831.88;;;18.24
75773;BMP280;64381;0.000;0.000;2024-03-08T11:10:56;94822.69;;;17.97
75773;BMP280;64381;0.000;0.000;2024-03-08T11:13:41;94816.94;;;17.77
75773;BMP280;64381;0.000;0.000;2024-03-08T11:16:10;94814.91;;;17.78
75773;BMP280;64381;0.000;0.000;2024-03-08T11:18:37;94806.25;;;17.81
75773;BMP280;64381;0.000;0.000;2024-03-08T11:21:03;94806.03;;;17.87
75773;BMP280;64381;0.000;0.000;2024-03-08T11:23:29;94812.81;;;17.94
75773;BMP280;64381;0.000;0.000;2024-03-08T11:25:55;94801.78;;;17.94
75773;BMP280;64381;0.000;0.000;2024-03-08T11:28:22;94808.16;;;17.96
75773;BMP280;64381;0.000;0.000;2024-03-08T11:33:30;94792.53;;;17.99
75773;BMP280;64381;0.000;0.000;2024-03-08T11:36:10;94789.94;;;18.01
75773;BMP280;64381;0.000;0.000;2024-03-08T11:38:40;94781.72;;;17.36
75773;BMP280;64381;0.000;0.000;2024-03-08T11:41:05;94782.94;;;17.10
75773;BMP280;64381;0.000;0.000;2024-03-08T11:43:30;94774.97;;;17.22
75773;BMP280;64381;0.000;0.000;2024-03-08T11:46:08;94784.50;;;17.36
75773;BMP280;64381;0.000;0.000;2024-03-08T11:48:33;94783.88;;;17.38
75773;BMP280;64381;0.000;0.000;2024-03-08T11:51:00;94786.47;;;17.43
75773;BMP280;64381;0.000;0.000;2024-03-08T11:53:25;94790.84;;;17.46
75773;BMP280;64381;0.000;0.000;2024-03-08T11:55:50;94781.47;;;17.49
75773;BMP280;64381;0.000;0.000;2024-03-08T11:58:16;94770.03;;;17.53
75773;BMP280;64381;0.000;0.000;2024-03-08T12:00:41;94764.31;;;17.58
75773;BMP280;64381;0.000;0.000;2024-03-08T12:03:09;94772.25;;;17.54
75773;BMP280;64381;0.000;0.000;2024-03-08T12:05:57;94771.63;;;17.63
75773;BMP280;64381;0.000;0.000;2024-03-08T12:08:22;94764.09;;;17.64
75773;BMP280;64381;0.000;0.000;2024-03-08T12:10:48;94749.19;;;17.67
75773;BMP280;64381;0.000;0.000;2024-03-08T12:13:13;94756.91;;;17.68
75773;BMP280;64381;0.000;0.000;2024-03-08T12:15:39;94750.66;;;17.68
75773;BMP280;64381;0.000;0.000;2024-03-08T12:18:05;94755.22;;;17.73
75773;BMP280;64381;0.000;0.000;2024-03-08T12:20:30;94742.16;;;17.73
75773;BMP280;64381;0.000;0.000;2024-03-08T12:22:56;94738.09;;;17.74
75773;BMP280;64381;0.000;0.000;2024-03-08T12:25:21;94734.06;;;17.75
75773;BMP280;64381;0.000;0.000;2024-03-08T12:27:47;94740.69;;;17.72
75773;BMP280;64381;0.000;0.000;2024-03-08T12:30:29;94736.41;;;17.79
75773;BMP280;64381;0.000;0.000;2024-03-08T12:32:59;94729.03;;;17.81
75773;BMP280;64381;0.000;0.000;2024-03-08T12:35:28;94716.69;;;17.82
75773;BMP280;64381;0.000;0.000;2024-03-08T12:37:58;94717.63;;;17.85
75773;BMP280;64381;0.000;0.000;2024-03-08T12:40:28;94714.13;;;17.84
75773;BMP280;64381;0.000;0.000;2024-03-08T12:42:55;94714.59;;;17.91
75773;BMP280;64381;0.000;0.000;2024-03-08T12:45:20;94718.28;;;17.93
75773;BMP280;64381;0.000;0.000;2024-03-08T12:47:46;94710.75;;;17.94
75773;BMP280;64381;0.000;0.000;2024-03-08T12:50:11;94700.06;;;17.90
75773;BMP280;64381;0.000;0.000;2024-03-08T12:52:37;94692.91;;;17.95
75773;BMP280;64381;0.000;0.000;2024-03-08T12:55:02;94699.63;;;18.01
75773;BMP280;64381;0.000;0.000;2024-03-08T12:57:28;94703.44;;;18.06
75773;BMP280;64381;0.000;0.000;2024-03-08T12:59:56;94690.16;;;18.12
75773;BMP280;64381;0.000;0.000;2024-03-08T13:02:21;94694.03;;;18.09
75773;BMP280;64381;0.000;0.000;2024-03-08T13:04:49;94685.41;;;18.05
75773;BMP280;64381;0.000;0.000;2024-03-08T13:07:14;94680.09;;;18.07
75773;BMP280;64381;0.000;0.000;2024-03-08T13:09:40;94679.75;;;18.03
75773;BMP280;64381;0.000;0.000;2024-03-08T13:12:05;94681.75;;;18.02
75773;BMP280;64381;0.000;0.000;2024-03-08T13:14:31;94681.59;;;18.00
75773;BMP280;64381;0.000;0.000;2024-03-08T13:16:56;94676.81;;;18.01
75773;BMP280;64381;0.000;0.000;2024-03-08T13:19:21;94667.06;;;18.00
75773;BMP280;64381;0.000;0.000;2024-03-08T13:21:46;94668.94;;;17.97
75773;BMP280;64381;0.000;0.000;2024-03-08T13:24:11;94675.63;;;17.94
75773;BMP280;64381;0.000;0.000;2024-03-08T13:26:37;94667.78;;;17.83
75773;BMP280;64381;0.000;0.000;2024-03-08T13:29:02;94667.16;;;17.75
75773;BMP280;64381;0.000;0.000;2024-03-08T13:31:27;94656.84;;;17.75
75773;BMP280;64381;0.000;0.000;2024-03-08T13:33:52;94666.97;;;17.73
75773;BMP280;64381;0.000;0.000;2024-03-08T13:36:17;94662.41;;;17.68
75773;BMP280;64381;0.000;0.000;2024-03-08T13:38:47;94656.72;;;17.66
75773;BMP280;64381;0.000;0.000;2024-03-08T13:41:16;94658.56;;;17.63
75773;BMP280;64381;0.000;0.000;2024-03-08T13:43:41;94646.84;;;17.63
75773;BMP280;64381;0.000;0.000;2024-03-08T13:46:07;94636.50;;;17.63
75773;BMP280;64381;0.000;0.000;2024-03-08T13:48:33;94640.00;;;17.64
75773;BMP280;64381;0.000;0.000;2024-03-08T13:50:58;94639.69;;;17.60
75773;BMP280;64381;0.000;0.000;2024-03-08T13:53:23;94626.16;;;17.71
75773;BMP280;64381;0.000;0.000;2024-03-08T13:55:49;94627.31;;;17.68
75773;BMP280;64381;0.000;0.000;2024-03-08T13:58:15;94628.25;;;17.63
75773;BMP280;64381;0.000;0.000;2024-03-08T14:00:40;94628.66;;;17.60
75773;BMP280;64381;0.000;0.000;2024-03-08T14:03:05;94620.81;;;17.56
75773;BMP280;64381;0.000;0.000;2024-03-08T14:05:31;94623.63;;;17.66
75773;BMP280;64381;0.000;0.000;2024-03-08T14:07:56;94618.59;;;17.72
75773;BMP280;64381;0.000;0.000;2024-03-08T14:10:21;94610.75;;;17.68
75773;BMP280;64381;0.000;0.000;2024-03-08T14:12:47;94617.72;;;17.69
75773;BMP280;64381;0.000;0.000;2024-03-08T14:15:12;94605.97;;;17.69
75773;BMP280;64381;0.000;0.000;2024-03-08T14:17:37;94609.38;;;17.77